sensor_id;sensor_type;location;lat;lon;timestamp;P1;durP1;ratioP1;P2;durP2;ratioP2
59938;SDS011;45801;51.810;19.444;2022-10-16T00:01:19;15.60;;;9.60;;
59938;SDS011;45801;51.810;19.444;2022-10-16T00:03:48;15.30;;;9.00;;
59938;SDS011;45801;51.810;19.444;2022-10-16T00:06:16;15.50;;;9.80;;
59938;SDS011;45801;51.810;19.444;2022-10-16T00:08:44;14.20;;;9.50;;
59938;SDS011;45801;51.810;19.444;2022-10-16T00:11:12;14.40;;;9.10;;
59938;SDS011;45801;51.810;19.444;2022-10-16T00:13:44;13.40;;;8.90;;
59938;SDS011;45801;51.810;19.444;2022-10-16T00:16:13;17.50;;;10.20;;
59938;SDS011;45801;51.810;19.444;2022-10-16T00:18:41;15.60;;;9.40;;
59938;SDS011;45801;51.810;19.444;2022-10-16T00:21:18;14.20;;;8.80;;
59938;SDS011;45801;51.810;19.444;2022-10-16T00:23:46;12.60;;;7.00;;
59938;SDS011;45801;51.810;19.444;2022-10-16T00:26:15;12.20;;;8.30;;
59938;SDS011;45801;51.810;19.444;2022-10-16T00:28:47;14.30;;;8.80;;
59938;SDS011;45801;51.810;19.444;2022-10-16T00:31:14;13.60;;;8.90;;
59938;SDS011;45801;51.810;19.444;2022-10-16T00:33:42;13.00;;;8.60;;
59938;SDS011;45801;51.810;19.444;2022-10-16T00:36:10;12.90;;;8.50;;
59938;SDS011;45801;51.810;19.444;2022-10-16T00:38:39;14.20;;;9.40;;
59938;SDS011;45801;51.810;19.444;2022-10-16T00:41:06;13.40;;;9.30;;
59938;SDS011;45801;51.810;19.444;2022-10-16T00:43:43;15.00;;;8.70;;
59938;SDS011;45801;51.810;19.444;2022-10-16T00:49:32;13.90;;;9.10;;
59938;SDS011;45801;51.810;19.444;2022-10-16T00:51:43;15.70;;;8.90;;
59938;SDS011;45801;51.810;19.444;2022-10-16T00:54:31;12.30;;;8.70;;
59938;SDS011;45801;51.810;19.444;2022-10-16T00:56:59;10.80;;;7.50;;
59938;SDS011;45801;51.810;19.444;2022-10-16T00:59:29;12.00;;;8.40;;
59938;SDS011;45801;51.810;19.444;2022-10-16T01:01:58;12.00;;;8.40;;
59938;SDS011;45801;51.810;19.444;2022-10-16T01:04:25;12.40;;;8.40;;
59938;SDS011;45801;51.810;19.444;2022-10-16T01:13:05;14.10;;;8.90;;
59938;SDS011;45801;51.810;19.444;2022-10-16T01:15:36;12.50;;;8.30;;
59938;SDS011;45801;51.810;19.444;2022-10-16T01:18:39;13.80;;;9.00;;
59938;SDS011;45801;51.810;19.444;2022-10-16T01:20:59;12.00;;;8.50;;
59938;SDS011;45801;51.810;19.444;2022-10-16T01:31:47;13.40;;;8.70;;
59938;SDS011;45801;51.810;19.444;2022-10-16T01:34:32;12.20;;;8.60;;
59938;SDS011;45801;51.810;19.444;2022-10-16T01:37:14;14.40;;;9.30;;
59938;SDS011;45801;51.810;19.444;2022-10-16T01:39:45;12.80;;;8.90;;
59938;SDS011;45801;51.810;19.444;2022-10-16T01:42:17;14.70;;;9.00;;
59938;SDS011;45801;51.810;19.444;2022-10-16T01:44:49;15.00;;;8.90;;
59938;SDS011;45801;51.810;19.444;2022-10-16T01:47:17;14.10;;;8.10;;
59938;SDS011;45801;51.810;19.444;2022-10-16T01:49:49;15.70;;;9.50;;
59938;SDS011;45801;51.810;19.444;2022-10-16T01:52:19;13.20;;;8.50;;
59938;SDS011;45801;51.810;19.444;2022-10-16T01:54:50;11.60;;;7.80;;
59938;SDS011;45801;51.810;19.444;2022-10-16T01:57:21;14.20;;;8.20;;
59938;SDS011;45801;51.810;19.444;2022-10-16T01:59:51;12.10;;;7.40;;
59938;SDS011;45801;51.810;19.444;2022-10-16T02:02:22;15.10;;;8.70;;
59938;SDS011;45801;51.810;19.444;2022-10-16T02:05:10;11.50;;;7.50;;
59938;SDS011;45801;51.810;19.444;2022-10-16T02:07:46;11.40;;;7.80;;
59938;SDS011;45801;51.810;19.444;2022-10-16T02:10:14;13.00;;;8.40;;
59938;SDS011;45801;51.810;19.444;2022-10-16T02:12:44;12.70;;;9.10;;
59938;SDS011;45801;51.810;19.444;2022-10-16T02:15:16;13.60;;;9.10;;
59938;SDS011;45801;51.810;19.444;2022-10-16T02:17:43;12.60;;;8.30;;
59938;SDS011;45801;51.810;19.444;2022-10-16T02:20:09;12.30;;;8.10;;
59938;SDS011;45801;51.810;19.444;2022-10-16T02:22:39;12.50;;;7.90;;
59938;SDS011;45801;51.810;19.444;2022-10-16T02:25:25;12.10;;;7.10;;
59938;SDS011;45801;51.810;19.444;2022-10-16T02:30:39;12.30;;;7.60;;
59938;SDS011;45801;51.810;19.444;2022-10-16T02:33:11;13.30;;;7.70;;
59938;SDS011;45801;51.810;19.444;2022-10-16T02:35:39;13.00;;;8.50;;
59938;SDS011;45801;51.810;19.444;2022-10-16T02:38:07;15.80;;;8.40;;
59938;SDS011;45801;51.810;19.444;2022-10-16T02:40:35;12.60;;;8.40;;
59938;SDS011;45801;51.810;19.444;2022-10-16T02:43:03;15.20;;;8.40;;
59938;SDS011;45801;51.810;19.444;2022-10-16T02:45:31;13.70;;;8.70;;
59938;SDS011;45801;51.810;19.444;2022-10-16T02:47:57;13.70;;;8.50;;
59938;SDS011;45801;51.810;19.444;2022-10-16T02:50:24;13.70;;;8.60;;
59938;SDS011;45801;51.810;19.444;2022-10-16T02:52:51;15.00;;;9.30;;
59938;SDS011;45801;51.810;19.444;2022-10-16T02:55:18;15.20;;;9.50;;
59938;SDS011;45801;51.810;19.444;2022-10-16T02:57:44;12.90;;;8.80;;
59938;SDS011;45801;51.810;19.444;2022-10-16T03:00:12;12.40;;;8.10;;
59938;SDS011;45801;51.810;19.444;2022-10-16T03:02:40;12.10;;;8.50;;
59938;SDS011;45801;51.810;19.444;2022-10-16T03:05:07;12.90;;;8.90;;
59938;SDS011;45801;51.810;19.444;2022-10-16T03:07:34;12.00;;;8.30;;
59938;SDS011;45801;51.810;19.444;2022-10-16T03:10:02;12.90;;;9.30;;
59938;SDS011;45801;51.810;19.444;2022-10-16T03:12:29;14.50;;;9.70;;
59938;SDS011;45801;51.810;19.444;2022-10-16T03:14:56;16.50;;;9.30;;
59938;SDS011;45801;51.810;19.444;2022-10-16T03:17:24;14.70;;;9.90;;
59938;SDS011;45801;51.810;19.444;2022-10-16T03:19:50;14.10;;;10.10;;
59938;SDS011;45801;51.810;19.444;2022-10-16T03:22:17;17.00;;;10.30;;
59938;SDS011;45801;51.810;19.444;2022-10-16T03:24:44;15.40;;;11.00;;
59938;SDS011;45801;51.810;19.444;2022-10-16T03:27:10;13.80;;;9.80;;
59938;SDS011;45801;51.810;19.444;2022-10-16T03:29:36;13.70;;;10.00;;
59938;SDS011;45801;51.810;19.444;2022-10-16T03:32:03;15.90;;;10.20;;
59938;SDS011;45801;51.810;19.444;2022-10-16T03:34:31;13.80;;;9.40;;
59938;SDS011;45801;51.810;19.444;2022-10-16T03:36:58;15.10;;;10.70;;
59938;SDS011;45801;51.810;19.444;2022-10-16T03:39:24;15.50;;;10.80;;
59938;SDS011;45801;51.810;19.444;2022-10-16T03:41:50;16.40;;;11.10;;
59938;SDS011;45801;51.810;19.444;2022-10-16T03:44:17;15.20;;;10.50;;
59938;SDS011;45801;51.810;19.444;2022-10-16T03:46:43;14.90;;;10.70;;
59938;SDS011;45801;51.810;19.444;2022-10-16T03:49:10;15.30;;;10.70;;
59938;SDS011;45801;51.810;19.444;2022-10-16T03:51:36;16.80;;;10.90;;
59938;SDS011;45801;51.810;19.444;2022-10-16T03:54:03;15.90;;;10.10;;
59938;SDS011;45801;51.810;19.444;2022-10-16T03:56:30;15.00;;;9.80;;
59938;SDS011;45801;51.810;19.444;2022-10-16T03:58:56;13.90;;;9.90;;
59938;SDS011;45801;51.810;19.444;2022-10-16T04:01:22;16.20;;;10.20;;
59938;SDS011;45801;51.810;19.444;2022-10-16T04:03:49;15.60;;;10.50;;
59938;SDS011;45801;51.810;19.444;2022-10-16T04:06:15;16.10;;;10.10;;
59938;SDS011;45801;51.810;19.444;2022-10-16T04:08:42;16.70;;;10.80;;
59938;SDS011;45801;51.810;19.444;2022-10-16T04:11:10;15.00;;;11.20;;
59938;SDS011;45801;51.810;19.444;2022-10-16T04:13:36;13.50;;;9.70;;
59938;SDS011;45801;51.810;19.444;2022-10-16T04:16:03;16.90;;;11.30;;
59938;SDS011;45801;51.810;19.444;2022-10-16T04:18:29;14.70;;;11.30;;
59938;SDS011;45801;51.810;19.444;2022-10-16T04:20:56;15.90;;;11.40;;
59938;SDS011;45801;51.810;19.444;2022-10-16T04:23:22;15.40;;;10.80;;
59938;SDS011;45801;51.810;19.444;2022-10-16T04:25:50;17.40;;;11.30;;
59938;SDS011;45801;51.810;19.444;2022-10-16T04:28:16;16.10;;;10.80;;
59938;SDS011;45801;51.810;19.444;2022-10-16T04:30:43;14.40;;;9.80;;
59938;SDS011;45801;51.810;19.444;2022-10-16T04:33:09;15.20;;;9.90;;
59938;SDS011;45801;51.810;19.444;2022-10-16T04:35:36;14.80;;;11.00;;
59938;SDS011;45801;51.810;19.444;2022-10-16T04:38:02;17.90;;;11.20;;
59938;SDS011;45801;51.810;19.444;2022-10-16T04:40:29;16.80;;;12.20;;
59938;SDS011;45801;51.810;19.444;2022-10-16T04:42:55;16.80;;;11.00;;
59938;SDS011;45801;51.810;19.444;2022-10-16T04:45:21;15.80;;;11.20;;
59938;SDS011;45801;51.810;19.444;2022-10-16T04:47:48;16.40;;;11.40;;
59938;SDS011;45801;51.810;19.444;2022-10-16T04:50:14;16.30;;;11.80;;
59938;SDS011;45801;51.810;19.444;2022-10-16T04:52:40;16.00;;;11.00;;
59938;SDS011;45801;51.810;19.444;2022-10-16T04:55:07;17.90;;;11.60;;
59938;SDS011;45801;51.810;19.444;2022-10-16T04:57:34;18.00;;;10.90;;
59938;SDS011;45801;51.810;19.444;2022-10-16T05:00:00;15.50;;;11.00;;
59938;SDS011;45801;51.810;19.444;2022-10-16T05:02:27;16.70;;;10.70;;
59938;SDS011;45801;51.810;19.444;2022-10-16T05:04:54;14.70;;;9.00;;
59938;SDS011;45801;51.810;19.444;2022-10-16T05:07:21;16.80;;;11.70;;
59938;SDS011;45801;51.810;19.444;2022-10-16T05:09:47;15.90;;;10.80;;
59938;SDS011;45801;51.810;19.444;2022-10-16T05:12:13;16.20;;;11.40;;
59938;SDS011;45801;51.810;19.444;2022-10-16T05:14:40;18.40;;;11.60;;
59938;SDS011;45801;51.810;19.444;2022-10-16T05:17:06;17.90;;;11.20;;
59938;SDS011;45801;51.810;19.444;2022-10-16T05:19:33;16.10;;;11.50;;
59938;SDS011;45801;51.810;19.444;2022-10-16T05:21:59;15.60;;;11.40;;
59938;SDS011;45801;51.810;19.444;2022-10-16T05:24:26;17.10;;;11.50;;
59938;SDS011;45801;51.810;19.444;2022-10-16T05:26:52;15.60;;;10.50;;
59938;SDS011;45801;51.810;19.444;2022-10-16T05:29:19;14.00;;;9.60;;
59938;SDS011;45801;51.810;19.444;2022-10-16T05:31:45;15.30;;;10.80;;
59938;SDS011;45801;51.810;19.444;2022-10-16T05:34:12;16.50;;;11.50;;
59938;SDS011;45801;51.810;19.444;2022-10-16T05:36:38;15.90;;;11.30;;
59938;SDS011;45801;51.810;19.444;2022-10-16T05:39:05;16.10;;;10.70;;
59938;SDS011;45801;51.810;19.444;2022-10-16T05:41:31;16.70;;;11.80;;
59938;SDS011;45801;51.810;19.444;2022-10-16T05:43:57;16.40;;;10.70;;
59938;SDS011;45801;51.810;19.444;2022-10-16T05:46:24;16.80;;;12.00;;
59938;SDS011;45801;51.810;19.444;2022-10-16T05:48:53;15.80;;;11.40;;
59938;SDS011;45801;51.810;19.444;2022-10-16T05:51:20;15.50;;;11.10;;
59938;SDS011;45801;51.810;19.444;2022-10-16T05:53:46;16.40;;;10.60;;
59938;SDS011;45801;51.810;19.444;2022-10-16T05:56:13;16.50;;;10.30;;
59938;SDS011;45801;51.810;19.444;2022-10-16T05:58:41;16.10;;;10.20;;
59938;SDS011;45801;51.810;19.444;2022-10-16T06:01:12;13.90;;;9.80;;
59938;SDS011;45801;51.810;19.444;2022-10-16T06:03:40;16.90;;;11.30;;
59938;SDS011;45801;51.810;19.444;2022-10-16T06:06:11;16.10;;;10.20;;
59938;SDS011;45801;51.810;19.444;2022-10-16T06:08:40;16.10;;;10.60;;
59938;SDS011;45801;51.810;19.444;2022-10-16T06:11:08;16.60;;;10.90;;
59938;SDS011;45801;51.810;19.444;2022-10-16T06:13:38;14.80;;;10.60;;
59938;SDS011;45801;51.810;19.444;2022-10-16T06:16:08;15.40;;;10.80;;
59938;SDS011;45801;51.810;19.444;2022-10-16T06:18:36;16.20;;;12.10;;
59938;SDS011;45801;51.810;19.444;2022-10-16T06:21:10;16.50;;;11.30;;
59938;SDS011;45801;51.810;19.444;2022-10-16T06:23:38;15.80;;;10.80;;
59938;SDS011;45801;51.810;19.444;2022-10-16T06:26:05;14.80;;;9.90;;
59938;SDS011;45801;51.810;19.444;2022-10-16T06:28:36;16.10;;;10.20;;
59938;SDS011;45801;51.810;19.444;2022-10-16T06:31:03;14.20;;;10.20;;
59938;SDS011;45801;51.810;19.444;2022-10-16T06:33:31;16.30;;;10.40;;
59938;SDS011;45801;51.810;19.444;2022-10-16T06:36:04;19.00;;;11.20;;
59938;SDS011;45801;51.810;19.444;2022-10-16T06:38:34;15.70;;;10.40;;
59938;SDS011;45801;51.810;19.444;2022-10-16T06:41:01;16.30;;;10.30;;
59938;SDS011;45801;51.810;19.444;2022-10-16T06:43:29;14.30;;;10.20;;
59938;SDS011;45801;51.810;19.444;2022-10-16T06:46:00;15.10;;;10.80;;
59938;SDS011;45801;51.810;19.444;2022-10-16T06:48:28;14.90;;;10.50;;
59938;SDS011;45801;51.810;19.444;2022-10-16T06:53:30;18.00;;;10.80;;
59938;SDS011;45801;51.810;19.444;2022-10-16T06:55:57;16.50;;;10.10;;
59938;SDS011;45801;51.810;19.444;2022-10-16T06:58:24;16.10;;;10.90;;
59938;SDS011;45801;51.810;19.444;2022-10-16T07:00:54;15.70;;;10.30;;
59938;SDS011;45801;51.810;19.444;2022-10-16T07:03:23;14.50;;;10.30;;
59938;SDS011;45801;51.810;19.444;2022-10-16T07:05:49;18.20;;;12.40;;
59938;SDS011;45801;51.810;19.444;2022-10-16T07:08:15;16.00;;;10.90;;
59938;SDS011;45801;51.810;19.444;2022-10-16T07:10:42;17.30;;;11.50;;
59938;SDS011;45801;51.810;19.444;2022-10-16T07:13:08;17.50;;;11.10;;
59938;SDS011;45801;51.810;19.444;2022-10-16T07:15:35;15.40;;;10.40;;
59938;SDS011;45801;51.810;19.444;2022-10-16T07:18:01;15.30;;;10.10;;
59938;SDS011;45801;51.810;19.444;2022-10-16T07:20:27;14.70;;;10.30;;
59938;SDS011;45801;51.810;19.444;2022-10-16T07:22:54;16.00;;;10.60;;
59938;SDS011;45801;51.810;19.444;2022-10-16T07:25:20;15.80;;;10.80;;
59938;SDS011;45801;51.810;19.444;2022-10-16T07:27:46;17.00;;;11.20;;
59938;SDS011;45801;51.810;19.444;2022-10-16T07:30:13;17.40;;;11.10;;
59938;SDS011;45801;51.810;19.444;2022-10-16T07:32:39;16.10;;;10.80;;
59938;SDS011;45801;51.810;19.444;2022-10-16T07:35:06;18.20;;;11.80;;
59938;SDS011;45801;51.810;19.444;2022-10-16T07:37:32;16.50;;;11.80;;
59938;SDS011;45801;51.810;19.444;2022-10-16T07:39:59;17.50;;;12.10;;
59938;SDS011;45801;51.810;19.444;2022-10-16T07:42:26;15.80;;;10.90;;
59938;SDS011;45801;51.810;19.444;2022-10-16T07:44:53;15.60;;;10.00;;
59938;SDS011;45801;51.810;19.444;2022-10-16T07:47:19;13.90;;;10.00;;
59938;SDS011;45801;51.810;19.444;2022-10-16T07:49:46;16.90;;;11.50;;
59938;SDS011;45801;51.810;19.444;2022-10-16T07:52:12;17.90;;;12.50;;
59938;SDS011;45801;51.810;19.444;2022-10-16T07:54:39;17.80;;;11.00;;
59938;SDS011;45801;51.810;19.444;2022-10-16T07:57:05;16.10;;;10.70;;
59938;SDS011;45801;51.810;19.444;2022-10-16T07:59:31;16.10;;;11.60;;
59938;SDS011;45801;51.810;19.444;2022-10-16T08:01:58;16.60;;;11.40;;
59938;SDS011;45801;51.810;19.444;2022-10-16T08:04:24;17.50;;;12.20;;
59938;SDS011;45801;51.810;19.444;2022-10-16T08:06:50;18.60;;;12.00;;
59938;SDS011;45801;51.810;19.444;2022-10-16T08:09:17;18.30;;;11.60;;
59938;SDS011;45801;51.810;19.444;2022-10-16T08:11:43;19.50;;;12.40;;
59938;SDS011;45801;51.810;19.444;2022-10-16T08:14:09;14.90;;;10.10;;
59938;SDS011;45801;51.810;19.444;2022-10-16T08:16:36;17.40;;;10.70;;
59938;SDS011;45801;51.810;19.444;2022-10-16T08:19:02;16.40;;;11.20;;
59938;SDS011;45801;51.810;19.444;2022-10-16T08:21:29;16.10;;;11.70;;
59938;SDS011;45801;51.810;19.444;2022-10-16T08:23:55;17.00;;;11.40;;
59938;SDS011;45801;51.810;19.444;2022-10-16T08:26:21;19.50;;;12.20;;
59938;SDS011;45801;51.810;19.444;2022-10-16T08:28:51;15.30;;;11.50;;
59938;SDS011;45801;51.810;19.444;2022-10-16T08:33:47;17.40;;;12.10;;
59938;SDS011;45801;51.810;19.444;2022-10-16T08:36:14;17.70;;;11.80;;
59938;SDS011;45801;51.810;19.444;2022-10-16T08:38:41;16.70;;;11.40;;
59938;SDS011;45801;51.810;19.444;2022-10-16T08:49:26;18.10;;;11.70;;
59938;SDS011;45801;51.810;19.444;2022-10-16T08:51:53;19.20;;;12.50;;
59938;SDS011;45801;51.810;19.444;2022-10-16T08:54:32;15.90;;;11.30;;
59938;SDS011;45801;51.810;19.444;2022-10-16T08:57:09;15.80;;;11.40;;
59938;SDS011;45801;51.810;19.444;2022-10-16T08:59:38;16.90;;;11.60;;
59938;SDS011;45801;51.810;19.444;2022-10-16T09:02:13;16.50;;;11.80;;
59938;SDS011;45801;51.810;19.444;2022-10-16T09:04:54;15.70;;;11.40;;
59938;SDS011;45801;51.810;19.444;2022-10-16T09:07:36;16.30;;;11.60;;
59938;SDS011;45801;51.810;19.444;2022-10-16T09:10:15;17.80;;;11.80;;
59938;SDS011;45801;51.810;19.444;2022-10-16T09:15:39;15.80;;;10.40;;
59938;SDS011;45801;51.810;19.444;2022-10-16T09:18:27;15.40;;;10.90;;
59938;SDS011;45801;51.810;19.444;2022-10-16T09:21:16;12.10;;;7.30;;
59938;SDS011;45801;51.810;19.444;2022-10-16T09:23:48;15.60;;;10.30;;
59938;SDS011;45801;51.810;19.444;2022-10-16T09:26:14;14.10;;;9.40;;
59938;SDS011;45801;51.810;19.444;2022-10-16T09:28:44;13.60;;;9.70;;
59938;SDS011;45801;51.810;19.444;2022-10-16T09:31:13;18.10;;;11.20;;
59938;SDS011;45801;51.810;19.444;2022-10-16T09:33:48;14.80;;;10.20;;
59938;SDS011;45801;51.810;19.444;2022-10-16T09:36:19;16.10;;;11.30;;
59938;SDS011;45801;51.810;19.444;2022-10-16T09:38:47;14.60;;;10.80;;
59938;SDS011;45801;51.810;19.444;2022-10-16T09:41:18;14.50;;;11.00;;
59938;SDS011;45801;51.810;19.444;2022-10-16T09:46:36;14.70;;;10.50;;
59938;SDS011;45801;51.810;19.444;2022-10-16T09:49:05;16.10;;;10.60;;
59938;SDS011;45801;51.810;19.444;2022-10-16T09:51:46;15.00;;;10.00;;
59938;SDS011;45801;51.810;19.444;2022-10-16T09:54:14;16.10;;;10.80;;
59938;SDS011;45801;51.810;19.444;2022-10-16T09:56:43;15.50;;;10.60;;
59938;SDS011;45801;51.810;19.444;2022-10-16T09:59:15;14.00;;;9.50;;
59938;SDS011;45801;51.810;19.444;2022-10-16T10:01:50;14.50;;;10.30;;
59938;SDS011;45801;51.810;19.444;2022-10-16T10:04:22;14.10;;;9.70;;
59938;SDS011;45801;51.810;19.444;2022-10-16T10:06:52;16.30;;;9.80;;
59938;SDS011;45801;51.810;19.444;2022-10-16T10:11:55;14.80;;;10.00;;
59938;SDS011;45801;51.810;19.444;2022-10-16T10:14:39;12.80;;;8.70;;
59938;SDS011;45801;51.810;19.444;2022-10-16T10:22:45;14.60;;;10.00;;
59938;SDS011;45801;51.810;19.444;2022-10-16T10:36:28;13.80;;;9.50;;
59938;SDS011;45801;51.810;19.444;2022-10-16T10:39:01;14.20;;;10.00;;
59938;SDS011;45801;51.810;19.444;2022-10-16T10:41:39;12.70;;;9.20;;
59938;SDS011;45801;51.810;19.444;2022-10-16T10:58:44;13.60;;;7.20;;
59938;SDS011;45801;51.810;19.444;2022-10-16T11:01:54;12.80;;;8.20;;
59938;SDS011;45801;51.810;19.444;2022-10-16T11:04:34;13.80;;;9.10;;
59938;SDS011;45801;51.810;19.444;2022-10-16T11:07:04;12.10;;;8.40;;
59938;SDS011;45801;51.810;19.444;2022-10-16T11:09:34;16.80;;;9.00;;
59938;SDS011;45801;51.810;19.444;2022-10-16T11:12:06;12.80;;;9.10;;
59938;SDS011;45801;51.810;19.444;2022-10-16T11:14:43;13.90;;;8.10;;
59938;SDS011;45801;51.810;19.444;2022-10-16T11:17:19;13.70;;;8.50;;
59938;SDS011;45801;51.810;19.444;2022-10-16T11:19:57;13.60;;;8.30;;
59938;SDS011;45801;51.810;19.444;2022-10-16T11:22:36;11.50;;;7.50;;
59938;SDS011;45801;51.810;19.444;2022-10-16T11:30:25;12.90;;;7.90;;
59938;SDS011;45801;51.810;19.444;2022-10-16T11:35:32;11.70;;;7.20;;
59938;SDS011;45801;51.810;19.444;2022-10-16T11:38:02;12.20;;;7.70;;
59938;SDS011;45801;51.810;19.444;2022-10-16T11:40:37;12.10;;;7.10;;
59938;SDS011;45801;51.810;19.444;2022-10-16T11:43:15;11.10;;;6.10;;
59938;SDS011;45801;51.810;19.444;2022-10-16T11:45:57;12.30;;;6.50;;
59938;SDS011;45801;51.810;19.444;2022-10-16T11:56:49;9.00;;;5.80;;
59938;SDS011;45801;51.810;19.444;2022-10-16T11:59:31;10.60;;;6.40;;
59938;SDS011;45801;51.810;19.444;2022-10-16T12:07:59;10.50;;;6.40;;
59938;SDS011;45801;51.810;19.444;2022-10-16T12:10:33;9.00;;;5.50;;
59938;SDS011;45801;51.810;19.444;2022-10-16T12:13:49;8.70;;;4.80;;
59938;SDS011;45801;51.810;19.444;2022-10-16T12:16:03;8.90;;;5.00;;
59938;SDS011;45801;51.810;19.444;2022-10-16T12:18:30;11.30;;;5.30;;
59938;SDS011;45801;51.810;19.444;2022-10-16T12:20:57;8.60;;;4.80;;
59938;SDS011;45801;51.810;19.444;2022-10-16T12:23:37;9.30;;;5.30;;
59938;SDS011;45801;51.810;19.444;2022-10-16T12:26:12;9.30;;;5.00;;
59938;SDS011;45801;51.810;19.444;2022-10-16T12:28:39;10.50;;;5.60;;
59938;SDS011;45801;51.810;19.444;2022-10-16T12:31:07;8.70;;;5.10;;
59938;SDS011;45801;51.810;19.444;2022-10-16T12:33:42;10.50;;;5.10;;
59938;SDS011;45801;51.810;19.444;2022-10-16T12:36:30;9.70;;;5.20;;
59938;SDS011;45801;51.810;19.444;2022-10-16T12:38:59;8.80;;;5.20;;
59938;SDS011;45801;51.810;19.444;2022-10-16T12:41:31;9.00;;;5.00;;
59938;SDS011;45801;51.810;19.444;2022-10-16T12:44:00;9.10;;;5.00;;
59938;SDS011;45801;51.810;19.444;2022-10-16T12:49:05;10.50;;;5.60;;
59938;SDS011;45801;51.810;19.444;2022-10-16T13:02:08;11.60;;;6.20;;
59938;SDS011;45801;51.810;19.444;2022-10-16T13:05:08;9.90;;;5.90;;
59938;SDS011;45801;51.810;19.444;2022-10-16T13:16:19;11.20;;;6.30;;
59938;SDS011;45801;51.810;19.444;2022-10-16T13:27:41;11.10;;;6.80;;
59938;SDS011;45801;51.810;19.444;2022-10-16T13:32:55;11.00;;;6.10;;
59938;SDS011;45801;51.810;19.444;2022-10-16T13:35:50;10.90;;;6.30;;
59938;SDS011;45801;51.810;19.444;2022-10-16T13:38:22;12.00;;;6.20;;
59938;SDS011;45801;51.810;19.444;2022-10-16T13:40:52;11.40;;;6.60;;
59938;SDS011;45801;51.810;19.444;2022-10-16T13:43:28;9.90;;;6.40;;
59938;SDS011;45801;51.810;19.444;2022-10-16T13:46:11;9.20;;;5.70;;
59938;SDS011;45801;51.810;19.444;2022-10-16T13:48:39;10.40;;;6.40;;
59938;SDS011;45801;51.810;19.444;2022-10-16T13:51:12;9.50;;;6.20;;
59938;SDS011;45801;51.810;19.444;2022-10-16T13:53:41;10.20;;;6.10;;
59938;SDS011;45801;51.810;19.444;2022-10-16T13:56:27;10.20;;;5.90;;
59938;SDS011;45801;51.810;19.444;2022-10-16T13:58:59;10.40;;;6.10;;
59938;SDS011;45801;51.810;19.444;2022-10-16T14:01:40;10.30;;;6.70;;
59938;SDS011;45801;51.810;19.444;2022-10-16T14:04:09;11.20;;;6.10;;
59938;SDS011;45801;51.810;19.444;2022-10-16T14:06:40;11.30;;;6.60;;
59938;SDS011;45801;51.810;19.444;2022-10-16T14:09:27;11.00;;;6.20;;
59938;SDS011;45801;51.810;19.444;2022-10-16T14:12:00;9.30;;;6.10;;
59938;SDS011;45801;51.810;19.444;2022-10-16T14:14:38;9.90;;;6.80;;
59938;SDS011;45801;51.810;19.444;2022-10-16T14:17:18;11.40;;;6.80;;
59938;SDS011;45801;51.810;19.444;2022-10-16T14:19:53;11.60;;;7.10;;
59938;SDS011;45801;51.810;19.444;2022-10-16T14:25:01;10.30;;;6.90;;
59938;SDS011;45801;51.810;19.444;2022-10-16T14:27:32;12.40;;;8.10;;
59938;SDS011;45801;51.810;19.444;2022-10-16T14:35:27;12.00;;;7.70;;
59938;SDS011;45801;51.810;19.444;2022-10-16T14:37:54;11.80;;;6.70;;
59938;SDS011;45801;51.810;19.444;2022-10-16T14:40:23;12.70;;;6.80;;
59938;SDS011;45801;51.810;19.444;2022-10-16T14:42:52;10.20;;;5.80;;
59938;SDS011;45801;51.810;19.444;2022-10-16T14:45:30;10.40;;;6.10;;
59938;SDS011;45801;51.810;19.444;2022-10-16T14:48:05;11.50;;;7.10;;
59938;SDS011;45801;51.810;19.444;2022-10-16T14:50:41;11.70;;;7.70;;
59938;SDS011;45801;51.810;19.444;2022-10-16T14:53:25;11.50;;;7.00;;
59938;SDS011;45801;51.810;19.444;2022-10-16T14:55:52;10.40;;;6.80;;
59938;SDS011;45801;51.810;19.444;2022-10-16T14:58:20;12.60;;;7.40;;
59938;SDS011;45801;51.810;19.444;2022-10-16T15:00:49;10.90;;;7.30;;
59938;SDS011;45801;51.810;19.444;2022-10-16T15:03:15;11.90;;;7.10;;
59938;SDS011;45801;51.810;19.444;2022-10-16T15:05:42;12.50;;;7.40;;
59938;SDS011;45801;51.810;19.444;2022-10-16T15:08:08;11.50;;;6.90;;
59938;SDS011;45801;51.810;19.444;2022-10-16T15:10:37;11.40;;;7.00;;
59938;SDS011;45801;51.810;19.444;2022-10-16T15:13:05;13.10;;;7.50;;
59938;SDS011;45801;51.810;19.444;2022-10-16T15:15:33;11.40;;;8.10;;
59938;SDS011;45801;51.810;19.444;2022-10-16T15:18:03;10.10;;;6.70;;
59938;SDS011;45801;51.810;19.444;2022-10-16T15:20:31;13.90;;;7.90;;
59938;SDS011;45801;51.810;19.444;2022-10-16T15:23:10;11.60;;;6.50;;
59938;SDS011;45801;51.810;19.444;2022-10-16T15:25:44;12.90;;;7.50;;
59938;SDS011;45801;51.810;19.444;2022-10-16T15:28:20;14.00;;;8.80;;
59938;SDS011;45801;51.810;19.444;2022-10-16T15:30:54;10.90;;;7.10;;
59938;SDS011;45801;51.810;19.444;2022-10-16T15:33:23;11.90;;;7.50;;
59938;SDS011;45801;51.810;19.444;2022-10-16T15:35:53;12.80;;;8.30;;
59938;SDS011;45801;51.810;19.444;2022-10-16T15:38:21;10.70;;;7.30;;
59938;SDS011;45801;51.810;19.444;2022-10-16T15:40:48;11.10;;;7.90;;
59938;SDS011;45801;51.810;19.444;2022-10-16T15:43:16;13.80;;;8.00;;
59938;SDS011;45801;51.810;19.444;2022-10-16T15:45:42;12.40;;;8.30;;
59938;SDS011;45801;51.810;19.444;2022-10-16T15:48:12;12.60;;;8.00;;
59938;SDS011;45801;51.810;19.444;2022-10-16T15:50:39;14.70;;;8.80;;
59938;SDS011;45801;51.810;19.444;2022-10-16T15:53:07;13.90;;;8.30;;
59938;SDS011;45801;51.810;19.444;2022-10-16T15:55:35;17.00;;;8.70;;
59938;SDS011;45801;51.810;19.444;2022-10-16T15:58:04;13.00;;;8.30;;
59938;SDS011;45801;51.810;19.444;2022-10-16T16:00:31;12.30;;;8.20;;
59938;SDS011;45801;51.810;19.444;2022-10-16T16:02:58;12.80;;;7.30;;
59938;SDS011;45801;51.810;19.444;2022-10-16T16:05:25;13.90;;;8.20;;
59938;SDS011;45801;51.810;19.444;2022-10-16T16:07:53;14.70;;;9.50;;
59938;SDS011;45801;51.810;19.444;2022-10-16T16:10:20;15.20;;;9.10;;
59938;SDS011;45801;51.810;19.444;2022-10-16T16:12:47;13.00;;;8.50;;
59938;SDS011;45801;51.810;19.444;2022-10-16T16:15:19;13.70;;;8.80;;
59938;SDS011;45801;51.810;19.444;2022-10-16T16:17:47;15.00;;;9.30;;
59938;SDS011;45801;51.810;19.444;2022-10-16T16:20:14;14.10;;;8.90;;
59938;SDS011;45801;51.810;19.444;2022-10-16T16:22:41;14.60;;;9.00;;
59938;SDS011;45801;51.810;19.444;2022-10-16T16:25:08;14.90;;;9.50;;
59938;SDS011;45801;51.810;19.444;2022-10-16T16:27:34;13.20;;;9.00;;
59938;SDS011;45801;51.810;19.444;2022-10-16T16:30:01;14.50;;;7.90;;
59938;SDS011;45801;51.810;19.444;2022-10-16T16:32:35;14.20;;;8.30;;
59938;SDS011;45801;51.810;19.444;2022-10-16T16:35:02;14.60;;;9.10;;
59938;SDS011;45801;51.810;19.444;2022-10-16T16:37:30;13.10;;;8.50;;
59938;SDS011;45801;51.810;19.444;2022-10-16T16:39:57;17.70;;;9.90;;
59938;SDS011;45801;51.810;19.444;2022-10-16T16:42:27;12.60;;;8.60;;
59938;SDS011;45801;51.810;19.444;2022-10-16T16:44:54;15.10;;;9.10;;
59938;SDS011;45801;51.810;19.444;2022-10-16T16:47:20;13.70;;;9.90;;
59938;SDS011;45801;51.810;19.444;2022-10-16T16:49:47;13.20;;;9.40;;